sensor_id;sensor_type;location;lat;lon;timestamp;P1;durP1;ratioP1;P2;durP2;ratioP2
74291;SDS011;62687;55.738;37.516;2023-04-06T00:01:38;9.88;;;3.20;;
74291;SDS011;62687;55.738;37.516;2023-04-06T00:04:23;10.70;;;3.47;;
74291;SDS011;62687;55.738;37.516;2023-04-06T00:07:07;6.60;;;3.88;;
74291;SDS011;62687;55.738;37.516;2023-04-06T00:09:51;5.82;;;3.63;;
74291;SDS011;62687;55.738;37.516;2023-04-06T00:12:36;8.18;;;3.45;;
74291;SDS011;62687;55.738;37.516;2023-04-06T00:15:20;6.28;;;3.58;;
74291;SDS011;62687;55.738;37.516;2023-04-06T00:18:04;11.02;;;4.05;;
74291;SDS011;62687;55.738;37.516;2023-04-06T00:20:49;6.72;;;3.63;;
74291;SDS011;62687;55.738;37.516;2023-04-06T00:23:34;12.10;;;4.03;;
74291;SDS011;62687;55.738;37.516;2023-04-06T00:26:19;5.68;;;3.47;;
74291;SDS011;62687;55.738;37.516;2023-04-06T00:29:03;9.30;;;4.15;;
74291;SDS011;62687;55.738;37.516;2023-04-06T00:31:47;8.88;;;4.63;;
74291;SDS011;62687;55.738;37.516;2023-04-06T00:34:32;9.63;;;3.63;;
74291;SDS011;62687;55.738;37.516;2023-04-06T00:37:16;9.90;;;3.65;;
74291;SDS011;62687;55.738;37.516;2023-04-06T00:40:00;8.52;;;3.65;;
74291;SDS011;62687;55.738;37.516;2023-04-06T00:42:45;7.07;;;3.33;;
74291;SDS011;62687;55.738;37.516;2023-04-06T00:45:29;4.82;;;3.30;;
74291;SDS011;62687;55.738;37.516;2023-04-06T00:48:13;5.65;;;3.17;;
74291;SDS011;62687;55.738;37.516;2023-04-06T00:50:57;7.55;;;3.83;;
74291;SDS011;62687;55.738;37.516;2023-04-06T00:53:42;8.88;;;4.22;;
74291;SDS011;62687;55.738;37.516;2023-04-06T00:56:27;6.40;;;3.97;;
74291;SDS011;62687;55.738;37.516;2023-04-06T00:59:11;6.55;;;3.63;;
74291;SDS011;62687;55.738;37.516;2023-04-06T01:01:56;7.22;;;4.40;;
74291;SDS011;62687;55.738;37.516;2023-04-06T01:04:40;10.10;;;3.97;;
74291;SDS011;62687;55.738;37.516;2023-04-06T01:07:24;7.32;;;4.03;;
74291;SDS011;62687;55.738;37.516;2023-04-06T01:10:08;12.27;;;4.35;;
74291;SDS011;62687;55.738;37.516;2023-04-06T01:12:53;10.70;;;4.43;;
74291;SDS011;62687;55.738;37.516;2023-04-06T01:15:37;8.75;;;4.60;;
74291;SDS011;62687;55.738;37.516;2023-04-06T01:18:26;12.18;;;5.40;;
74291;SDS011;62687;55.738;37.516;2023-04-06T01:21:11;6.60;;;3.92;;
74291;SDS011;62687;55.738;37.516;2023-04-06T01:23:59;10.52;;;4.78;;
74291;SDS011;62687;55.738;37.516;2023-04-06T01:26:43;11.18;;;4.40;;
74291;SDS011;62687;55.738;37.516;2023-04-06T01:29:28;9.38;;;4.75;;
74291;SDS011;62687;55.738;37.516;2023-04-06T01:32:12;9.80;;;4.50;;
74291;SDS011;62687;55.738;37.516;2023-04-06T01:34:57;8.05;;;4.28;;
74291;SDS011;62687;55.738;37.516;2023-04-06T01:37:41;12.15;;;4.63;;
74291;SDS011;62687;55.738;37.516;2023-04-06T01:40:25;15.60;;;4.78;;
74291;SDS011;62687;55.738;37.516;2023-04-06T01:43:09;8.55;;;4.75;;
74291;SDS011;62687;55.738;37.516;2023-04-06T01:45:53;10.38;;;4.93;;
74291;SDS011;62687;55.738;37.516;2023-04-06T01:48:37;8.05;;;4.50;;
74291;SDS011;62687;55.738;37.516;2023-04-06T01:51:21;9.98;;;4.47;;
74291;SDS011;62687;55.738;37.516;2023-04-06T01:54:06;10.35;;;4.63;;
74291;SDS011;62687;55.738;37.516;2023-04-06T01:56:50;11.70;;;4.78;;
74291;SDS011;62687;55.738;37.516;2023-04-06T01:59:36;7.22;;;4.32;;
74291;SDS011;62687;55.738;37.516;2023-04-06T02:02:20;9.35;;;5.22;;
74291;SDS011;62687;55.738;37.516;2023-04-06T02:05:04;14.85;;;4.47;;
74291;SDS011;62687;55.738;37.516;2023-04-06T02:07:49;8.57;;;4.53;;
74291;SDS011;62687;55.738;37.516;2023-04-06T02:10:33;7.25;;;4.70;;
74291;SDS011;62687;55.738;37.516;2023-04-06T02:13:18;7.68;;;4.50;;
74291;SDS011;62687;55.738;37.516;2023-04-06T02:16:02;10.25;;;4.90;;
74291;SDS011;62687;55.738;37.516;2023-04-06T02:18:46;10.70;;;4.55;;
74291;SDS011;62687;55.738;37.516;2023-04-06T02:21:31;11.98;;;4.82;;
74291;SDS011;62687;55.738;37.516;2023-04-06T02:24:15;8.77;;;4.72;;
74291;SDS011;62687;55.738;37.516;2023-04-06T02:26:59;7.55;;;4.25;;
74291;SDS011;62687;55.738;37.516;2023-04-06T02:29:44;12.85;;;4.82;;
74291;SDS011;62687;55.738;37.516;2023-04-06T02:32:28;9.63;;;4.40;;
74291;SDS011;62687;55.738;37.516;2023-04-06T02:35:12;10.50;;;4.15;;
74291;SDS011;62687;55.738;37.516;2023-04-06T02:37:57;6.10;;;4.03;;
74291;SDS011;62687;55.738;37.516;2023-04-06T02:40:41;11.88;;;4.13;;
74291;SDS011;62687;55.738;37.516;2023-04-06T02:43:25;8.00;;;3.67;;
74291;SDS011;62687;55.738;37.516;2023-04-06T02:46:09;7.90;;;3.92;;
74291;SDS011;62687;55.738;37.516;2023-04-06T02:48:53;7.28;;;4.05;;
74291;SDS011;62687;55.738;37.516;2023-04-06T02:51:37;7.95;;;4.28;;
74291;SDS011;62687;55.738;37.516;2023-04-06T02:54:21;7.20;;;3.95;;
74291;SDS011;62687;55.738;37.516;2023-04-06T02:57:06;7.20;;;4.22;;
74291;SDS011;62687;55.738;37.516;2023-04-06T02:59:50;7.72;;;4.13;;
74291;SDS011;62687;55.738;37.516;2023-04-06T03:02:34;10.45;;;4.07;;
74291;SDS011;62687;55.738;37.516;2023-04-06T03:05:19;13.23;;;4.70;;
74291;SDS011;62687;55.738;37.516;2023-04-06T03:08:03;10.70;;;4.60;;
74291;SDS011;62687;55.738;37.516;2023-04-06T03:10:47;11.13;;;4.28;;
74291;SDS011;62687;55.738;37.516;2023-04-06T03:13:31;7.65;;;4.10;;
74291;SDS011;62687;55.738;37.516;2023-04-06T03:16:15;6.95;;;4.10;;
74291;SDS011;62687;55.738;37.516;2023-04-06T03:18:59;11.88;;;4.13;;
74291;SDS011;62687;55.738;37.516;2023-04-06T03:21:44;10.75;;;3.85;;
74291;SDS011;62687;55.738;37.516;2023-04-06T03:24:28;8.80;;;4.00;;
74291;SDS011;62687;55.738;37.516;2023-04-06T03:27:12;9.27;;;4.10;;
74291;SDS011;62687;55.738;37.516;2023-04-06T03:29:56;9.98;;;4.20;;
74291;SDS011;62687;55.738;37.516;2023-04-06T03:32:41;9.68;;;4.45;;
74291;SDS011;62687;55.738;37.516;2023-04-06T03:35:25;14.13;;;4.15;;
74291;SDS011;62687;55.738;37.516;2023-04-06T03:38:09;9.23;;;3.92;;
74291;SDS011;62687;55.738;37.516;2023-04-06T03:40:53;7.60;;;4.38;;
74291;SDS011;62687;55.738;37.516;2023-04-06T03:43:37;11.57;;;4.70;;
74291;SDS011;62687;55.738;37.516;2023-04-06T03:46:21;8.88;;;3.83;;
74291;SDS011;62687;55.738;37.516;2023-04-06T03:49:05;10.45;;;4.25;;
74291;SDS011;62687;55.738;37.516;2023-04-06T03:51:34;8.63;;;3.92;;
74291;SDS011;62687;55.738;37.516;2023-04-06T03:54:18;7.53;;;3.38;;
74291;SDS011;62687;55.738;37.516;2023-04-06T03:57:03;8.68;;;3.72;;
74291;SDS011;62687;55.738;37.516;2023-04-06T03:59:47;10.98;;;4.15;;
74291;SDS011;62687;55.738;37.516;2023-04-06T04:02:32;7.50;;;3.92;;
74291;SDS011;62687;55.738;37.516;2023-04-06T04:05:16;6.35;;;4.00;;
74291;SDS011;62687;55.738;37.516;2023-04-06T04:08:00;9.57;;;3.75;;
74291;SDS011;62687;55.738;37.516;2023-04-06T04:10:44;11.95;;;3.58;;
74291;SDS011;62687;55.738;37.516;2023-04-06T04:13:28;15.98;;;4.13;;
74291;SDS011;62687;55.738;37.516;2023-04-06T04:16:13;15.77;;;7.22;;
74291;SDS011;62687;55.738;37.516;2023-04-06T04:18:57;14.95;;;4.40;;
74291;SDS011;62687;55.738;37.516;2023-04-06T04:21:45;13.27;;;3.72;;
74291;SDS011;62687;55.738;37.516;2023-04-06T04:24:30;10.88;;;3.90;;
74291;SDS011;62687;55.738;37.516;2023-04-06T04:27:14;30.27;;;4.88;;
74291;SDS011;62687;55.738;37.516;2023-04-06T04:29:58;15.50;;;3.78;;
74291;SDS011;62687;55.738;37.516;2023-04-06T04:32:42;16.10;;;3.83;;
74291;SDS011;62687;55.738;37.516;2023-04-06T04:35:27;11.35;;;3.92;;
74291;SDS011;62687;55.738;37.516;2023-04-06T04:38:11;7.15;;;3.65;;
74291;SDS011;62687;55.738;37.516;2023-04-06T04:40:55;10.93;;;4.70;;
74291;SDS011;62687;55.738;37.516;2023-04-06T04:43:39;15.38;;;4.82;;
74291;SDS011;62687;55.738;37.516;2023-04-06T04:46:23;12.27;;;4.40;;
74291;SDS011;62687;55.738;37.516;2023-04-06T04:49:08;19.15;;;4.50;;
74291;SDS011;62687;55.738;37.516;2023-04-06T04:51:52;11.10;;;4.32;;
74291;SDS011;62687;55.738;37.516;2023-04-06T04:54:36;14.38;;;4.25;;
74291;SDS011;62687;55.738;37.516;2023-04-06T04:57:20;12.52;;;4.60;;
74291;SDS011;62687;55.738;37.516;2023-04-06T05:00:05;14.13;;;5.00;;
74291;SDS011;62687;55.738;37.516;2023-04-06T05:02:50;18.40;;;4.82;;
74291;SDS011;62687;55.738;37.516;2023-04-06T05:05:34;15.82;;;4.95;;
74291;SDS011;62687;55.738;37.516;2023-04-06T05:08:18;19.02;;;5.05;;
74291;SDS011;62687;55.738;37.516;2023-04-06T05:11:02;16.13;;;4.85;;
74291;SDS011;62687;55.738;37.516;2023-04-06T05:13:48;21.33;;;5.28;;
74291;SDS011;62687;55.738;37.516;2023-04-06T05:16:34;12.07;;;4.10;;
74291;SDS011;62687;55.738;37.516;2023-04-06T05:19:18;14.25;;;3.97;;
74291;SDS011;62687;55.738;37.516;2023-04-06T05:22:03;14.85;;;4.10;;
74291;SDS011;62687;55.738;37.516;2023-04-06T05:24:47;15.27;;;4.10;;
74291;SDS011;62687;55.738;37.516;2023-04-06T05:27:31;13.30;;;4.03;;
74291;SDS011;62687;55.738;37.516;2023-04-06T05:30:16;13.38;;;5.10;;
74291;SDS011;62687;55.738;37.516;2023-04-06T05:33:00;14.02;;;5.80;;
74291;SDS011;62687;55.738;37.516;2023-04-06T05:35:44;27.88;;;5.00;;
74291;SDS011;62687;55.738;37.516;2023-04-06T05:38:29;14.30;;;4.45;;
74291;SDS011;62687;55.738;37.516;2023-04-06T05:41:13;9.75;;;4.20;;
74291;SDS011;62687;55.738;37.516;2023-04-06T05:43:57;18.23;;;4.47;;
74291;SDS011;62687;55.738;37.516;2023-04-06T05:46:41;28.90;;;5.28;;
74291;SDS011;62687;55.738;37.516;2023-04-06T05:49:25;24.38;;;4.50;;
74291;SDS011;62687;55.738;37.516;2023-04-06T05:52:09;13.27;;;4.50;;
74291;SDS011;62687;55.738;37.516;2023-04-06T05:54:54;14.15;;;4.20;;
74291;SDS011;62687;55.738;37.516;2023-04-06T05:57:38;17.65;;;4.28;;
74291;SDS011;62687;55.738;37.516;2023-04-06T06:00:22;18.25;;;5.10;;
74291;SDS011;62687;55.738;37.516;2023-04-06T06:03:06;18.67;;;4.20;;
74291;SDS011;62687;55.738;37.516;2023-04-06T06:08:36;12.27;;;4.00;;
74291;SDS011;62687;55.738;37.516;2023-04-06T06:11:20;13.38;;;4.90;;
74291;SDS011;62687;55.738;37.516;2023-04-06T06:14:04;24.77;;;6.50;;
74291;SDS011;62687;55.738;37.516;2023-04-06T06:16:49;12.70;;;5.05;;
74291;SDS011;62687;55.738;37.516;2023-04-06T06:19:33;14.57;;;4.40;;
74291;SDS011;62687;55.738;37.516;2023-04-06T06:22:17;18.17;;;5.18;;
74291;SDS011;62687;55.738;37.516;2023-04-06T06:25:01;14.82;;;4.05;;
74291;SDS011;62687;55.738;37.516;2023-04-06T06:27:46;17.45;;;4.13;;
74291;SDS011;62687;55.738;37.516;2023-04-06T06:30:30;14.70;;;4.95;;
74291;SDS011;62687;55.738;37.516;2023-04-06T06:33:14;26.35;;;5.07;;
74291;SDS011;62687;55.738;37.516;2023-04-06T06:35:59;20.65;;;4.75;;
74291;SDS011;62687;55.738;37.516;2023-04-06T06:38:43;27.13;;;8.45;;
74291;SDS011;62687;55.738;37.516;2023-04-06T06:41:28;19.65;;;6.22;;
74291;SDS011;62687;55.738;37.516;2023-04-06T06:44:12;22.15;;;5.65;;
74291;SDS011;62687;55.738;37.516;2023-04-06T06:46:56;17.50;;;5.65;;
74291;SDS011;62687;55.738;37.516;2023-04-06T06:49:40;12.52;;;5.35;;
74291;SDS011;62687;55.738;37.516;2023-04-06T06:52:24;15.50;;;5.47;;
74291;SDS011;62687;55.738;37.516;2023-04-06T06:55:09;16.17;;;5.20;;
74291;SDS011;62687;55.738;37.516;2023-04-06T06:57:54;13.13;;;4.07;;
74291;SDS011;62687;55.738;37.516;2023-04-06T07:00:38;20.45;;;4.72;;
74291;SDS011;62687;55.738;37.516;2023-04-06T07:03:22;19.35;;;4.53;;
74291;SDS011;62687;55.738;37.516;2023-04-06T07:06:06;15.50;;;5.10;;
74291;SDS011;62687;55.738;37.516;2023-04-06T07:08:50;29.73;;;6.22;;
74291;SDS011;62687;55.738;37.516;2023-04-06T07:11:34;18.60;;;4.18;;
74291;SDS011;62687;55.738;37.516;2023-04-06T07:14:19;20.83;;;5.30;;
74291;SDS011;62687;55.738;37.516;2023-04-06T07:17:03;20.73;;;4.80;;
74291;SDS011;62687;55.738;37.516;2023-04-06T07:19:47;11.80;;;4.32;;
74291;SDS011;62687;55.738;37.516;2023-04-06T07:22:31;19.15;;;4.75;;
74291;SDS011;62687;55.738;37.516;2023-04-06T07:25:16;16.73;;;4.43;;
74291;SDS011;62687;55.738;37.516;2023-04-06T07:28:00;13.13;;;4.32;;
74291;SDS011;62687;55.738;37.516;2023-04-06T07:33:29;20.25;;;5.97;;
74291;SDS011;62687;55.738;37.516;2023-04-06T07:36:14;23.42;;;5.00;;
74291;SDS011;62687;55.738;37.516;2023-04-06T07:38:58;18.88;;;5.28;;
74291;SDS011;62687;55.738;37.516;2023-04-06T07:41:42;18.58;;;4.85;;
74291;SDS011;62687;55.738;37.516;2023-04-06T07:44:27;15.77;;;4.78;;
74291;SDS011;62687;55.738;37.516;2023-04-06T07:47:11;26.65;;;5.55;;
74291;SDS011;62687;55.738;37.516;2023-04-06T07:49:55;24.27;;;5.13;;
74291;SDS011;62687;55.738;37.516;2023-04-06T07:52:39;28.17;;;6.07;;
74291;SDS011;62687;55.738;37.516;2023-04-06T07:55:24;19.38;;;4.32;;
74291;SDS011;62687;55.738;37.516;2023-04-06T07:58:08;17.65;;;4.32;;
74291;SDS011;62687;55.738;37.516;2023-04-06T08:00:52;13.77;;;4.30;;
74291;SDS011;62687;55.738;37.516;2023-04-06T08:03:36;18.02;;;4.32;;
74291;SDS011;62687;55.738;37.516;2023-04-06T08:06:20;18.67;;;3.83;;
74291;SDS011;62687;55.738;37.516;2023-04-06T08:09:04;17.60;;;3.55;;
74291;SDS011;62687;55.738;37.516;2023-04-06T08:11:48;13.45;;;3.42;;
74291;SDS011;62687;55.738;37.516;2023-04-06T08:14:33;18.90;;;3.90;;
74291;SDS011;62687;55.738;37.516;2023-04-06T08:17:17;13.15;;;3.38;;
74291;SDS011;62687;55.738;37.516;2023-04-06T08:20:01;12.98;;;3.40;;
74291;SDS011;62687;55.738;37.516;2023-04-06T08:22:47;12.02;;;3.60;;
74291;SDS011;62687;55.738;37.516;2023-04-06T08:25:31;14.55;;;4.40;;
74291;SDS011;62687;55.738;37.516;2023-04-06T08:28:15;23.35;;;3.15;;
74291;SDS011;62687;55.738;37.516;2023-04-06T08:30:59;14.55;;;3.15;;
74291;SDS011;62687;55.738;37.516;2023-04-06T08:33:47;25.30;;;3.60;;
74291;SDS011;62687;55.738;37.516;2023-04-06T08:36:32;10.23;;;2.85;;
74291;SDS011;62687;55.738;37.516;2023-04-06T08:39:16;16.88;;;3.17;;
74291;SDS011;62687;55.738;37.516;2023-04-06T08:42:00;20.40;;;4.07;;
74291;SDS011;62687;55.738;37.516;2023-04-06T08:44:47;22.30;;;3.83;;
74291;SDS011;62687;55.738;37.516;2023-04-06T08:47:35;14.80;;;3.67;;
74291;SDS011;62687;55.738;37.516;2023-04-06T08:50:20;17.48;;;3.50;;
74291;SDS011;62687;55.738;37.516;2023-04-06T08:53:05;10.27;;;2.90;;
74291;SDS011;62687;55.738;37.516;2023-04-06T08:55:50;8.50;;;3.22;;
74291;SDS011;62687;55.738;37.516;2023-04-06T08:58:35;12.60;;;3.97;;
74291;SDS011;62687;55.738;37.516;2023-04-06T09:01:25;18.70;;;3.10;;
74291;SDS011;62687;55.738;37.516;2023-04-06T09:04:10;13.52;;;2.95;;
74291;SDS011;62687;55.738;37.516;2023-04-06T09:06:55;26.77;;;4.43;;
74291;SDS011;62687;55.738;37.516;2023-04-06T09:09:39;25.33;;;4.25;;
74291;SDS011;62687;55.738;37.516;2023-04-06T09:12:31;23.20;;;3.75;;
74291;SDS011;62687;55.738;37.516;2023-04-06T09:15:19;20.48;;;3.47;;
74291;SDS011;62687;55.738;37.516;2023-04-06T09:18:05;17.00;;;2.95;;
74291;SDS011;62687;55.738;37.516;2023-04-06T09:20:56;14.52;;;3.08;;
74291;SDS011;62687;55.738;37.516;2023-04-06T09:23:57;8.15;;;2.42;;
74291;SDS011;62687;55.738;37.516;2023-04-06T09:26:45;15.23;;;2.78;;
74291;SDS011;62687;55.738;37.516;2023-04-06T09:29:30;21.23;;;3.60;;
74291;SDS011;62687;55.738;37.516;2023-04-06T09:32:15;15.15;;;3.60;;
74291;SDS011;62687;55.738;37.516;2023-04-06T09:35:07;16.63;;;3.38;;
74291;SDS011;62687;55.738;37.516;2023-04-06T09:37:52;16.42;;;2.88;;
74291;SDS011;62687;55.738;37.516;2023-04-06T09:40:46;12.38;;;2.63;;
74291;SDS011;62687;55.738;37.516;2023-04-06T09:43:32;21.45;;;3.28;;
74291;SDS011;62687;55.738;37.516;2023-04-06T09:46:16;13.45;;;3.25;;
74291;SDS011;62687;55.738;37.516;2023-04-06T09:49:02;8.98;;;2.97;;
74291;SDS011;62687;55.738;37.516;2023-04-06T09:51:48;17.80;;;3.35;;
74291;SDS011;62687;55.738;37.516;2023-04-06T09:54:40;20.45;;;2.78;;
74291;SDS011;62687;55.738;37.516;2023-04-06T10:01:09;15.13;;;2.65;;
74291;SDS011;62687;55.738;37.516;2023-04-06T10:07:11;19.92;;;3.30;;
74291;SDS011;62687;55.738;37.516;2023-04-06T10:09:55;15.30;;;2.20;;
74291;SDS011;62687;55.738;37.516;2023-04-06T10:12:41;20.48;;;2.88;;
74291;SDS011;62687;55.738;37.516;2023-04-06T10:15:27;19.70;;;3.15;;
74291;SDS011;62687;55.738;37.516;2023-04-06T10:18:13;14.60;;;3.15;;
74291;SDS011;62687;55.738;37.516;2023-04-06T10:24:00;14.93;;;2.88;;
74291;SDS011;62687;55.738;37.516;2023-04-06T10:27:01;12.05;;;2.47;;
74291;SDS011;62687;55.738;37.516;2023-04-06T10:29:47;12.38;;;2.45;;
74291;SDS011;62687;55.738;37.516;2023-04-06T10:32:38;16.40;;;3.40;;
74291;SDS011;62687;55.738;37.516;2023-04-06T10:35:22;19.40;;;3.25;;
74291;SDS011;62687;55.738;37.516;2023-04-06T10:38:07;14.63;;;3.22;;
74291;SDS011;62687;55.738;37.516;2023-04-06T10:40:52;16.48;;;2.90;;
74291;SDS011;62687;55.738;37.516;2023-04-06T10:43:37;22.73;;;3.22;;
74291;SDS011;62687;55.738;37.516;2023-04-06T10:46:26;9.25;;;2.40;;
74291;SDS011;62687;55.738;37.516;2023-04-06T10:49:12;15.95;;;2.92;;
74291;SDS011;62687;55.738;37.516;2023-04-06T10:51:56;13.98;;;2.65;;
74291;SDS011;62687;55.738;37.516;2023-04-06T10:54:42;20.25;;;3.00;;
74291;SDS011;62687;55.738;37.516;2023-04-06T10:57:29;11.93;;;2.60;;
74291;SDS011;62687;55.738;37.516;2023-04-06T11:00:16;15.15;;;2.85;;
74291;SDS011;62687;55.738;37.516;2023-04-06T11:05:46;42.13;;;5.00;;
74291;SDS011;62687;55.738;37.516;2023-04-06T11:08:34;20.42;;;3.30;;
74291;SDS011;62687;55.738;37.516;2023-04-06T11:11:20;14.32;;;3.08;;
74291;SDS011;62687;55.738;37.516;2023-04-06T11:14:05;15.35;;;2.72;;
74291;SDS011;62687;55.738;37.516;2023-04-06T11:16:53;14.90;;;3.30;;
74291;SDS011;62687;55.738;37.516;2023-04-06T11:19:37;16.60;;;3.90;;
74291;SDS011;62687;55.738;37.516;2023-04-06T11:22:21;18.00;;;2.58;;
74291;SDS011;62687;55.738;37.516;2023-04-06T11:25:07;13.80;;;3.22;;
74291;SDS011;62687;55.738;37.516;2023-04-06T11:27:51;12.63;;;3.03;;
74291;SDS011;62687;55.738;37.516;2023-04-06T11:30:36;15.95;;;3.40;;
74291;SDS011;62687;55.738;37.516;2023-04-06T11:33:20;21.80;;;4.15;;
74291;SDS011;62687;55.738;37.516;2023-04-06T11:36:06;27.05;;;4.82;;
74291;SDS011;62687;55.738;37.516;2023-04-06T11:38:50;11.50;;;2.63;;
74291;SDS011;62687;55.738;37.516;2023-04-06T11:41:35;13.80;;;2.92;;
74291;SDS011;62687;55.738;37.516;2023-04-06T11:47:19;15.63;;;3.33;;
74291;SDS011;62687;55.738;37.516;2023-04-06T11:52:57;15.32;;;3.50;;
74291;SDS011;62687;55.738;37.516;2023-04-06T11:55:44;12.40;;;3.25;;
74291;SDS011;62687;55.738;37.516;2023-04-06T11:58:31;18.58;;;3.63;;
74291;SDS011;62687;55.738;37.516;2023-04-06T12:01:15;18.48;;;3.63;;
74291;SDS011;62687;55.738;37.516;2023-04-06T12:03:59;15.05;;;3.10;;
74291;SDS011;62687;55.738;37.516;2023-04-06T12:06:43;16.65;;;3.00;;
74291;SDS011;62687;55.738;37.516;2023-04-06T12:09:27;11.73;;;2.88;;
74291;SDS011;62687;55.738;37.516;2023-04-06T12:12:12;17.05;;;2.80;;
74291;SDS011;62687;55.738;37.516;2023-04-06T12:14:56;12.70;;;2.78;;
74291;SDS011;62687;55.738;37.516;2023-04-06T12:17:40;13.85;;;3.10;;
74291;SDS011;62687;55.738;37.516;2023-04-06T12:20:25;20.80;;;2.85;;
74291;SDS011;62687;55.738;37.516;2023-04-06T12:23:09;17.95;;;3.40;;
74291;SDS011;62687;55.738;37.516;2023-04-06T12:25:53;16.80;;;3.60;;
74291;SDS011;62687;55.738;37.516;2023-04-06T12:28:38;15.45;;;3.17;;
74291;SDS011;62687;55.738;37.516;2023-04-06T12:31:22;17.17;;;3.28;;
74291;SDS011;62687;55.738;37.516;2023-04-06T12:34:08;16.77;;;2.63;;
74291;SDS011;62687;55.738;37.516;2023-04-06T12:36:53;16.08;;;2.60;;
74291;SDS011;62687;55.738;37.516;2023-04-06T12:42:21;16.58;;;2.67;;
74291;SDS011;62687;55.738;37.516;2023-04-06T12:45:06;10.20;;;2.35;;
74291;SDS011;62687;55.738;37.516;2023-04-06T12:47:51;18.17;;;3.05;;
74291;SDS011;62687;55.738;37.516;2023-04-06T12:50:35;14.25;;;2.90;;
74291;SDS011;62687;55.738;37.516;2023-04-06T12:53:19;16.27;;;3.35;;
74291;SDS011;62687;55.738;37.516;2023-04-06T12:56:11;11.10;;;2.10;;
74291;SDS011;62687;55.738;37.516;2023-04-06T12:58:56;10.40;;;3.42;;
74291;SDS011;62687;55.738;37.516;2023-04-06T13:04:24;9.05;;;2.60;;
74291;SDS011;62687;55.738;37.516;2023-04-06T13:07:10;16.90;;;3.17;;
74291;SDS011;62687;55.738;37.516;2023-04-06T13:09:54;10.45;;;2.70;;
74291;SDS011;62687;55.738;37.516;2023-04-06T13:12:38;15.90;;;2.65;;
74291;SDS011;62687;55.738;37.516;2023-04-06T13:15:23;18.70;;;3.03;;
74291;SDS011;62687;55.738;37.516;2023-04-06T13:18:07;18.65;;;3.22;;
74291;SDS011;62687;55.738;37.516;2023-04-06T13:20:52;16.73;;;2.63;;
74291;SDS011;62687;55.738;37.516;2023-04-06T13:23:39;14.93;;;2.63;;
74291;SDS011;62687;55.738;37.516;2023-04-06T13:26:23;13.52;;;2.20;;
74291;SDS011;62687;55.738;37.516;2023-04-06T13:29:07;10.20;;;2.60;;
74291;SDS011;62687;55.738;37.516;2023-04-06T13:31:51;20.35;;;2.15;;
74291;SDS011;62687;55.738;37.516;2023-04-06T13:34:36;12.68;;;2.40;;
74291;SDS011;62687;55.738;37.516;2023-04-06T13:37:20;11.80;;;2.50;;
74291;SDS011;62687;55.738;37.516;2023-04-06T13:40:05;13.60;;;2.22;;
74291;SDS011;62687;55.738;37.516;2023-04-06T13:42:50;9.90;;;2.40;;
74291;SDS011;62687;55.738;37.516;2023-04-06T13:45:34;12.70;;;2.40;;
74291;SDS011;62687;55.738;37.516;2023-04-06T13:48:18;9.32;;;2.30;;
74291;SDS011;62687;55.738;37.516;2023-04-06T13:51:09;11.95;;;1.98;;
74291;SDS011;62687;55.738;37.516;2023-04-06T13:53:54;10.32;;;2.30;;
74291;SDS011;62687;55.738;37.516;2023-04-06T13:59:22;21.60;;;2.20;;
74291;SDS011;62687;55.738;37.516;2023-04-06T14:04:51;10.35;;;2.25;;
74291;SDS011;62687;55.738;37.516;2023-04-06T14:10:19;15.10;;;2.30;;
74291;SDS011;62687;55.738;37.516;2023-04-06T14:13:06;16.88;;;2.70;;
74291;SDS011;62687;55.738;37.516;2023-04-06T14:15:53;10.68;;;2.65;;
74291;SDS011;62687;55.738;37.516;2023-04-06T14:18:38;14.77;;;2.45;;
74291;SDS011;62687;55.738;37.516;2023-04-06T14:21:23;8.23;;;2.13;;
74291;SDS011;62687;55.738;37.516;2023-04-06T14:24:07;17.70;;;2.40;;
74291;SDS011;62687;55.738;37.516;2023-04-06T14:26:52;12.95;;;2.17;;
74291;SDS011;62687;55.738;37.516;2023-04-06T14:29:36;11.02;;;1.85;;
74291;SDS011;62687;55.738;37.516;2023-04-06T14:32:20;9.75;;;2.13;;
74291;SDS011;62687;55.738;37.516;2023-04-06T14:35:05;11.20;;;2.10;;
74291;SDS011;62687;55.738;37.516;2023-04-06T14:37:49;13.70;;;2.13;;
74291;SDS011;62687;55.738;37.516;2023-04-06T14:40:34;13.40;;;3.30;;
74291;SDS011;62687;55.738;37.516;2023-04-06T14:43:19;15.00;;;2.20;;
74291;SDS011;62687;55.738;37.516;2023-04-06T14:46:04;19.60;;;2.55;;
74291;SDS011;62687;55.738;37.516;2023-04-06T14:48:49;10.38;;;2.00;;
74291;SDS011;62687;55.738;37.516;2023-04-06T14:54:17;15.30;;;2.03;;
74291;SDS011;62687;55.738;37.516;2023-04-06T14:57:01;10.80;;;1.58;;
74291;SDS011;62687;55.738;37.516;2023-04-06T14:59:45;14.02;;;2.17;;
74291;SDS011;62687;55.738;37.516;2023-04-06T15:02:31;9.85;;;1.73;;
74291;SDS011;62687;55.738;37.516;2023-04-06T15:05:16;5.30;;;1.20;;
74291;SDS011;62687;55.738;37.516;2023-04-06T15:08:00;11.75;;;1.33;;
74291;SDS011;62687;55.738;37.516;2023-04-06T15:10:45;13.55;;;3.08;;
74291;SDS011;62687;55.738;37.516;2023-04-06T15:13:29;18.77;;;2.22;;
74291;SDS011;62687;55.738;37.516;2023-04-06T15:16:13;23.25;;;2.25;;
74291;SDS011;62687;55.738;37.516;2023-04-06T15:18:58;15.80;;;2.78;;
74291;SDS011;62687;55.738;37.516;2023-04-06T15:21:44;15.90;;;2.25;;
74291;SDS011;62687;55.738;37.516;2023-04-06T15:24:28;13.75;;;2.45;;
74291;SDS011;62687;55.738;37.516;2023-04-06T15:27:12;4.97;;;1.70;;
74291;SDS011;62687;55.738;37.516;2023-04-06T15:29:56;11.93;;;2.17;;
74291;SDS011;62687;55.738;37.516;2023-04-06T15:33:03;10.70;;;1.98;;
74291;SDS011;62687;55.738;37.516;2023-04-06T15:35:47;10.07;;;1.88;;
74291;SDS011;62687;55.738;37.516;2023-04-06T15:38:31;7.97;;;1.55;;
74291;SDS011;62687;55.738;37.516;2023-04-06T15:41:16;14.88;;;2.05;;
74291;SDS011;62687;55.738;37.516;2023-04-06T15:44:00;11.10;;;1.75;;
74291;SDS011;62687;55.738;37.516;2023-04-06T15:46:45;9.20;;;1.88;;
74291;SDS011;62687;55.738;37.516;2023-04-06T15:49:29;9.60;;;1.90;;
74291;SDS011;62687;55.738;37.516;2023-04-06T15:54:58;12.20;;;2.78;;
74291;SDS011;62687;55.738;37.516;2023-04-06T15:57:42;16.52;;;2.40;;
74291;SDS011;62687;55.738;37.516;2023-04-06T16:00:26;15.40;;;2.13;;
74291;SDS011;62687;55.738;37.516;2023-04-06T16:03:11;8.38;;;1.40;;
74291;SDS011;62687;55.738;37.516;2023-04-06T16:05:56;10.30;;;2.08;;
74291;SDS011;62687;55.738;37.516;2023-04-06T16:08:40;14.68;;;3.25;;
74291;SDS011;62687;55.738;37.516;2023-04-06T16:11:24;27.60;;;3.38;;
74291;SDS011;62687;55.738;37.516;2023-04-06T16:14:09;13.45;;;1.80;;
74291;SDS011;62687;55.738;37.516;2023-04-06T16:16:53;7.13;;;1.10;;
74291;SDS011;62687;55.738;37.516;2023-04-06T16:19:38;8.60;;;1.85;;
74291;SDS011;62687;55.738;37.516;2023-04-06T16:22:22;10.40;;;1.98;;
74291;SDS011;62687;55.738;37.516;2023-04-06T16:25:06;10.35;;;2.17;;
74291;SDS011;62687;55.738;37.516;2023-04-06T16:27:51;14.55;;;2.25;;
74291;SDS011;62687;55.738;37.516;2023-04-06T16:30:36;16.00;;;2.45;;
74291;SDS011;62687;55.738;37.516;2023-04-06T16:33:20;15.48;;;3.58;;
74291;SDS011;62687;55.738;37.516;2023-04-06T16:36:07;17.38;;;2.65;;
74291;SDS011;62687;55.738;37.516;2023-04-06T16:38:52;13.18;;;2.17;;
74291;SDS011;62687;55.738;37.516;2023-04-06T16:41:37;13.32;;;2.33;;
74291;SDS011;62687;55.738;37.516;2023-04-06T16:44:21;16.58;;;1.75;;
74291;SDS011;62687;55.738;37.516;2023-04-06T16:47:06;7.53;;;2.10;;
74291;SDS011;62687;55.738;37.516;2023-04-06T16:49:51;11.48;;;2.13;;